createdAt,value
2022-09-27T07:06:37.646Z,63.67
2022-09-27T07:11:44.630Z,62.70
2022-09-27T07:16:48.910Z,61.89
2022-09-27T07:21:54.505Z,58.62
2022-09-27T07:26:58.720Z,57.29
2022-09-27T07:32:03.138Z,57.56
2022-09-27T07:37:08.679Z,57.22
2022-09-27T07:42:13.138Z,58.02
2022-09-27T07:47:17.848Z,56.69
2022-09-27T07:52:22.356Z,58.38
2022-09-27T07:57:26.540Z,57.66
2022-09-27T08:02:32.996Z,56.08
2022-09-27T08:07:40.180Z,56.38
2022-09-27T08:12:43.654Z,56.87
2022-09-27T08:17:47.176Z,57.32
2022-09-27T08:22:51.983Z,56.65
2022-09-27T08:27:59.879Z,56.23
2022-09-27T08:33:03.986Z,55.53
2022-09-27T08:38:09.619Z,54.92
2022-09-27T08:43:21.416Z,54.85
2022-09-27T08:48:29.195Z,53.95
2022-09-27T08:53:39.108Z,52.62
2022-09-27T08:58:49.969Z,52.91
2022-09-27T09:03:56.798Z,52.96
2022-09-27T09:09:17.564Z,53.31
2022-09-27T09:14:46.746Z,51.93
2022-09-27T09:20:05.811Z,50.83
2022-09-27T09:25:29.429Z,51.03
2022-09-27T09:30:42.861Z,50.44
2022-09-27T09:35:52.911Z,50.34
2022-09-27T09:41:02.771Z,50.17
2022-09-27T09:46:15.447Z,49.78
2022-09-27T09:51:23.417Z,49.51
2022-09-27T09:56:33.864Z,49.47
2022-09-27T10:01:43.204Z,49.48
2022-09-27T10:06:47.332Z,49.77
2022-09-27T10:11:53.073Z,49.10
2022-09-27T10:17:01.192Z,49.28
2022-09-27T10:22:16.074Z,49.74
2022-09-27T10:27:21.473Z,50.76
2022-09-27T10:32:27.691Z,49.16
2022-09-27T10:37:32.492Z,50.01
2022-09-27T10:42:39.034Z,49.42
2022-09-27T10:47:43.375Z,49.59
2022-09-27T10:52:46.859Z,49.28
2022-09-27T10:57:56.018Z,49.21
2022-09-27T11:03:02.674Z,47.71
2022-09-27T11:08:27.578Z,47.33
2022-09-27T11:13:34.654Z,46.88
2022-09-27T11:18:49.711Z,47.71
2022-09-27T11:24:10.995Z,47.98
2022-09-27T11:29:27.800Z,48.88
2022-09-27T11:34:54.106Z,48.42
2022-09-27T11:40:08.681Z,48.18
2022-09-27T11:51:11.922Z,48.50
2022-09-27T11:56:28.322Z,46.71
2022-09-27T12:01:44.563Z,45.98
2022-09-27T12:06:55.778Z,43.29
2022-09-27T12:12:03.821Z,44.44
2022-09-27T12:17:16.333Z,44.75
2022-09-27T12:22:46.734Z,45.79
2022-09-27T12:27:51.872Z,45.50
2022-09-27T12:33:12.065Z,43.92
2022-09-27T12:38:19.725Z,44.77
2022-09-27T12:43:25.012Z,45.10
2022-09-27T12:48:38.207Z,45.06
2022-09-27T12:53:57.795Z,45.17
2022-09-27T12:59:27.274Z,45.82
2022-09-27T13:04:47.813Z,45.79
2022-09-27T13:10:27.212Z,45.07
2022-09-27T13:15:34.629Z,45.81
2022-09-27T13:20:49.068Z,45.73
2022-09-27T13:25:56.562Z,45.50
2022-09-27T13:31:01.931Z,45.82
2022-09-27T13:36:33.682Z,45.89
2022-09-27T13:42:00.248Z,46.22
2022-09-27T13:47:16.160Z,46.11
2022-09-27T13:52:33.995Z,46.14
2022-09-27T13:57:46.531Z,46.26
2022-09-27T14:03:02.771Z,46.88
2022-09-27T14:08:17.476Z,47.59
2022-09-27T14:13:22.236Z,48.27
2022-09-27T14:18:26.454Z,48.78
2022-09-27T14:23:32.438Z,49.69
2022-09-27T14:28:43.857Z,49.99
2022-09-27T14:33:47.554Z,50.14
2022-09-27T14:38:53.187Z,50.28
2022-09-27T14:43:56.583Z,50.26
2022-09-27T14:49:01.266Z,50.73
2022-09-27T14:54:11.388Z,51.04
2022-09-27T14:59:18.121Z,51.37
2022-09-27T15:04:24.514Z,51.69
2022-09-27T15:09:33.106Z,52.09
2022-09-27T15:14:41.567Z,52.18
2022-09-27T15:19:59.516Z,53.25
2022-09-27T15:25:19.567Z,52.98
2022-09-27T15:30:30.041Z,53.26
2022-09-27T15:35:36.359Z,52.75
2022-09-27T15:41:07.067Z,53.40
2022-09-27T15:46:43.126Z,53.86
2022-09-27T15:51:49.186Z,54.33
2022-09-27T15:56:57.128Z,54.81
2022-09-27T16:02:07.756Z,55.48
2022-09-27T16:07:13.958Z,56.00
2022-09-27T16:12:19.077Z,56.63
2022-09-27T16:17:23.825Z,56.76
2022-09-27T16:22:26.950Z,57.63
2022-09-27T16:27:32.566Z,57.90
2022-09-27T16:32:41.259Z,58.17
2022-09-27T16:37:46.130Z,58.75
2022-09-27T16:42:51.157Z,59.96
2022-09-27T16:47:55.411Z,59.80
2022-09-27T16:53:00.337Z,60.38
2022-09-27T16:58:08.174Z,61.00
2022-09-27T17:03:12.207Z,61.03
2022-09-27T17:08:16.630Z,60.94
2022-09-27T17:13:22.043Z,61.64
2022-09-27T17:18:26.333Z,62.13
2022-09-27T17:23:29.937Z,61.91
2022-09-27T17:28:36.448Z,62.49
2022-09-27T17:33:44.747Z,62.87
2022-09-27T17:38:50.824Z,63.65
2022-09-27T17:43:58.079Z,64.32
2022-09-27T17:49:20.041Z,64.25
2022-09-27T17:54:26.339Z,64.53
2022-09-27T17:59:31.955Z,64.62
2022-09-27T18:04:35.732Z,65.51
2022-09-27T18:09:40.310Z,65.36
2022-09-27T18:14:45.949Z,65.84
2022-09-27T18:19:50.182Z,66.33
2022-09-27T18:24:53.895Z,66.24
2022-09-27T18:30:00.242Z,66.86
2022-09-27T18:35:03.798Z,66.02
2022-09-27T18:40:08.849Z,66.89
2022-09-27T18:45:14.004Z,66.67
2022-09-27T18:50:17.973Z,66.24
2022-09-27T18:55:25.287Z,66.70
2022-09-27T19:00:32.144Z,67.38
2022-09-27T19:05:36.513Z,68.09
2022-09-27T19:10:40.879Z,68.05
2022-09-27T19:15:55.862Z,67.83
2022-09-27T19:21:08.368Z,67.79
2022-09-27T19:26:16.662Z,67.42
2022-09-27T19:31:24.547Z,68.53
2022-09-27T19:36:29.411Z,68.63
2022-09-27T19:41:33.366Z,68.91
2022-09-27T19:46:39.951Z,69.00
2022-09-27T19:51:44.125Z,68.87
2022-09-27T19:56:50.133Z,68.62
2022-09-27T20:01:55.549Z,69.04
2022-09-27T20:06:59.674Z,69.01
2022-09-27T20:12:04.982Z,69.83
2022-09-27T20:17:10.533Z,69.89
2022-09-27T20:22:14.605Z,69.57
2022-09-27T20:27:18.887Z,69.93
2022-09-27T20:32:27.697Z,70.06
2022-09-27T20:37:32.940Z,70.10
2022-09-27T20:42:36.051Z,71.99
2022-09-27T20:47:41.474Z,69.33
2022-09-27T20:52:45.353Z,70.48
2022-09-27T20:57:57.316Z,70.40
2022-09-27T21:03:02.627Z,70.48
2022-09-27T21:08:06.832Z,70.54
2022-09-27T21:13:10.283Z,70.93
2022-09-27T21:18:15.769Z,69.89
2022-09-27T21:23:19.170Z,70.66
2022-09-27T21:28:23.230Z,70.59
2022-09-27T21:33:27.957Z,70.21
2022-09-27T21:38:32.060Z,69.82
2022-09-27T21:43:37.700Z,69.67
2022-09-27T21:48:45.657Z,69.85
2022-09-27T21:53:52.412Z,69.59
2022-09-27T21:58:57.043Z,70.06
2022-09-27T22:04:03.056Z,69.77
2022-09-27T22:09:09.196Z,70.14
2022-09-27T22:14:13.352Z,70.42
2022-09-27T22:19:19.102Z,69.91
2022-09-27T22:24:22.875Z,69.46
2022-09-27T22:29:26.969Z,68.58
2022-09-27T22:34:31.894Z,68.38
2022-09-27T22:39:35.997Z,69.03
2022-09-27T22:44:39.449Z,68.50
2022-09-27T22:49:44.945Z,67.96
2022-09-27T22:54:48.376Z,68.13
2022-09-27T22:59:52.565Z,67.98
2022-09-27T23:04:57.976Z,68.39
2022-09-27T23:10:02.168Z,67.93
2022-09-27T23:15:07.883Z,68.38
2022-09-27T23:20:15.127Z,67.79
2022-09-27T23:25:19.400Z,67.70
2022-09-27T23:30:27.919Z,67.35
2022-09-27T23:35:34.433Z,67.68
2022-09-27T23:40:38.550Z,67.62
2022-09-27T23:45:42.874Z,67.66
2022-09-27T23:50:49.075Z,68.00
2022-09-27T23:56:03.009Z,68.16
